PAL212 RPLL-RCTP
Flight info
| Callsign | PAL212 |
|---|---|
| Flight time | 1h 44m |
| Altitude | 37000 |
| Route | CAB2R CAB B462 LAO M646 POTIB Q14 TNN TNN1A |
| Aircraft | A333/H-SDE3GHIJ2J3J5M1RVWXY/LB2D1 |
Departure
| Time | 2026-05-05 13:15 |
|---|---|
| Airport | Ninoy Aquino International Airport (RPLL) |
Arrival
| Time | 2026-05-05 14:59 |
|---|---|
| Airport | Taiwan Taoyuan International Airport (RCTP) |
| Time | Latitude | Longitude | Altitude | Speed | Heading |
|---|---|---|---|---|---|
| 2026-05-05 13:03 | 14.50543 | 121.00803 | 72 ft | 0 kts | 148° |
| 2026-05-05 13:09 | 14.50541 | 121.00805 | 67 ft | 1 kts | 148° |
| 2026-05-05 13:09 | 14.50531 | 121.00811 | 72 ft | 2 kts | 148° |
| 2026-05-05 13:09 | 14.50514 | 121.00820 | 67 ft | 3 kts | 155° |
| 2026-05-05 13:10 | 14.50490 | 121.00826 | 67 ft | 4 kts | 173° |
| 2026-05-05 13:10 | 14.50458 | 121.00823 | 70 ft | 5 kts | 191° |
| 2026-05-05 13:10 | 14.50419 | 121.00814 | 72 ft | 6 kts | 193° |
| 2026-05-05 13:10 | 14.50378 | 121.00789 | 61 ft | 7 kts | 225° |
| 2026-05-05 13:11 | 14.50348 | 121.00743 | 64 ft | 8 kts | 239° |
| 2026-05-05 13:11 | 14.50318 | 121.00690 | 61 ft | 9 kts | 240° |
| 2026-05-05 13:11 | 14.50287 | 121.00633 | 63 ft | 9 kts | 240° |
| 2026-05-05 13:11 | 14.50253 | 121.00572 | 71 ft | 10 kts | 240° |
| 2026-05-05 13:12 | 14.50215 | 121.00504 | 61 ft | 11 kts | 240° |
| 2026-05-05 13:12 | 14.50174 | 121.00431 | 63 ft | 12 kts | 240° |
| 2026-05-05 13:12 | 14.50133 | 121.00357 | 62 ft | 12 kts | 240° |
| 2026-05-05 13:12 | 14.50090 | 121.00279 | 64 ft | 13 kts | 240° |
| 2026-05-05 13:13 | 14.50045 | 121.00198 | 64 ft | 13 kts | 240° |
| 2026-05-05 13:13 | 14.49998 | 121.00114 | 62 ft | 14 kts | 241° |
| 2026-05-05 13:13 | 14.49952 | 121.00027 | 62 ft | 14 kts | 241° |
| 2026-05-05 13:13 | 14.49893 | 120.99965 | 65 ft | 11 kts | 185° |
| 2026-05-05 13:14 | 14.49824 | 120.99995 | 65 ft | 11 kts | 147° |
| 2026-05-05 13:14 | 14.49811 | 121.00054 | 67 ft | 8 kts | 59° |
| 2026-05-05 13:14 | 14.49848 | 121.00121 | 64 ft | 22 kts | 60° |
| 2026-05-05 13:14 | 14.50023 | 121.00437 | 61 ft | 81 kts | 60° |
| 2026-05-05 13:15 | 14.50401 | 121.01119 | 64 ft | 135 kts | 60° |
| 2026-05-05 13:15 | 14.50938 | 121.02101 | 104 ft | 179 kts | 63° |
| 2026-05-05 13:15 | 14.51587 | 121.03272 | 717 ft | 190 kts | 63° |
| 2026-05-05 13:15 | 14.52219 | 121.04399 | 1869 ft | 173 kts | 62° |
| 2026-05-05 13:16 | 14.52806 | 121.05447 | 2568 ft | 173 kts | 62° |
| 2026-05-05 13:16 | 14.53448 | 121.06606 | 2762 ft | 200 kts | 62° |
| 2026-05-05 13:16 | 14.54190 | 121.07950 | 2857 ft | 231 kts | 62° |
| 2026-05-05 13:16 | 14.55036 | 121.09479 | 3014 ft | 257 kts | 62° |
| 2026-05-05 13:17 | 14.55948 | 121.11092 | 3514 ft | 263 kts | 58° |
| 2026-05-05 13:17 | 14.57132 | 121.12546 | 4180 ft | 266 kts | 43° |
| 2026-05-05 13:17 | 14.58728 | 121.13554 | 4850 ft | 273 kts | 20° |
| 2026-05-05 13:17 | 14.60622 | 121.13822 | 5485 ft | 279 kts | 1° |
| 2026-05-05 13:18 | 14.62540 | 121.13672 | 6173 ft | 281 kts | 355° |
| 2026-05-05 13:18 | 14.64485 | 121.13421 | 6847 ft | 282 kts | 355° |
| 2026-05-05 13:18 | 14.66448 | 121.13150 | 7526 ft | 285 kts | 354° |
| 2026-05-05 13:18 | 14.68432 | 121.12880 | 8193 ft | 289 kts | 354° |
| 2026-05-05 13:19 | 14.70437 | 121.12611 | 8899 ft | 292 kts | 354° |
| 2026-05-05 13:19 | 14.72460 | 121.12342 | 9620 ft | 295 kts | 355° |
| 2026-05-05 13:19 | 14.74512 | 121.12072 | 10237 ft | 301 kts | 355° |
| 2026-05-05 13:19 | 14.76650 | 121.11794 | 10475 ft | 321 kts | 354° |
| 2026-05-05 13:20 | 14.78942 | 121.11497 | 10626 ft | 342 kts | 354° |
| 2026-05-05 13:20 | 14.81370 | 121.11182 | 10817 ft | 358 kts | 354° |
| 2026-05-05 13:20 | 14.83864 | 121.10856 | 11361 ft | 363 kts | 354° |
| 2026-05-05 13:20 | 14.86336 | 121.10531 | 12017 ft | 364 kts | 354° |
| 2026-05-05 13:21 | 14.88861 | 121.10201 | 12618 ft | 366 kts | 354° |
| 2026-05-05 13:21 | 14.91396 | 121.09869 | 13174 ft | 371 kts | 354° |
| 2026-05-05 13:21 | 14.93981 | 121.09532 | 13750 ft | 375 kts | 354° |
| 2026-05-05 13:21 | 14.96580 | 121.09193 | 14235 ft | 378 kts | 354° |
| 2026-05-05 13:22 | 14.99209 | 121.08849 | 14751 ft | 381 kts | 353° |
| 2026-05-05 13:22 | 15.01846 | 121.08504 | 15265 ft | 383 kts | 353° |
| 2026-05-05 13:22 | 15.04468 | 121.08162 | 15751 ft | 387 kts | 353° |
| 2026-05-05 13:22 | 15.07184 | 121.07807 | 16255 ft | 389 kts | 353° |
| 2026-05-05 13:23 | 15.09848 | 121.07458 | 16722 ft | 393 kts | 353° |
| 2026-05-05 13:23 | 15.12568 | 121.07103 | 17222 ft | 395 kts | 353° |
| 2026-05-05 13:23 | 15.15307 | 121.06744 | 17705 ft | 398 kts | 353° |
| 2026-05-05 13:23 | 15.18063 | 121.06384 | 18172 ft | 401 kts | 352° |
| 2026-05-05 13:24 | 15.20848 | 121.06019 | 18579 ft | 404 kts | 352° |
| 2026-05-05 13:24 | 15.23656 | 121.05652 | 18984 ft | 406 kts | 352° |
| 2026-05-05 13:24 | 15.26475 | 121.05283 | 19388 ft | 409 kts | 352° |
| 2026-05-05 13:24 | 15.29299 | 121.04913 | 19779 ft | 411 kts | 352° |
| 2026-05-05 13:25 | 15.32143 | 121.04541 | 20154 ft | 414 kts | 352° |
| 2026-05-05 13:25 | 15.34990 | 121.04168 | 20543 ft | 416 kts | 352° |
| 2026-05-05 13:25 | 15.37870 | 121.03790 | 20924 ft | 419 kts | 352° |
| 2026-05-05 13:25 | 15.40771 | 121.03410 | 21314 ft | 421 kts | 352° |
| 2026-05-05 13:26 | 15.43696 | 121.03027 | 21682 ft | 424 kts | 352° |
| 2026-05-05 13:26 | 15.46624 | 121.02643 | 22069 ft | 426 kts | 352° |
| 2026-05-05 13:26 | 15.49577 | 121.02217 | 22435 ft | 429 kts | 351° |
| 2026-05-05 13:26 | 15.52533 | 121.01718 | 22797 ft | 431 kts | 349° |
| 2026-05-05 13:27 | 15.54485 | 121.01366 | 23040 ft | 433 kts | 349° |
| 2026-05-05 13:27 | 15.58474 | 121.00622 | 23520 ft | 436 kts | 349° |
| 2026-05-05 13:27 | 15.61448 | 121.00063 | 23814 ft | 438 kts | 349° |
| 2026-05-05 13:27 | 15.64434 | 120.99505 | 24113 ft | 441 kts | 349° |
| 2026-05-05 13:28 | 15.66455 | 120.99131 | 24319 ft | 442 kts | 349° |
| 2026-05-05 13:28 | 15.69521 | 120.98567 | 24640 ft | 444 kts | 349° |
| 2026-05-05 13:28 | 15.73140 | 120.97906 | 24980 ft | 447 kts | 349° |
| 2026-05-05 13:28 | 15.75177 | 120.97535 | 25170 ft | 449 kts | 349° |
| 2026-05-05 13:29 | 15.78252 | 120.96975 | 25500 ft | 450 kts | 349° |
| 2026-05-05 13:29 | 15.81354 | 120.96412 | 25812 ft | 452 kts | 349° |
| 2026-05-05 13:29 | 15.84459 | 120.95847 | 26118 ft | 454 kts | 348° |
| 2026-05-05 13:29 | 15.87582 | 120.95279 | 26421 ft | 457 kts | 348° |
| 2026-05-05 13:30 | 15.90731 | 120.94705 | 26717 ft | 459 kts | 348° |
| 2026-05-05 13:30 | 15.93874 | 120.94133 | 27011 ft | 461 kts | 348° |
| 2026-05-05 13:30 | 15.97056 | 120.93554 | 27332 ft | 463 kts | 348° |
| 2026-05-05 13:30 | 16.00229 | 120.92976 | 27637 ft | 464 kts | 348° |
| 2026-05-05 13:31 | 16.03420 | 120.92394 | 27936 ft | 466 kts | 348° |
| 2026-05-05 13:31 | 16.06625 | 120.91807 | 28133 ft | 469 kts | 348° |
| 2026-05-05 13:31 | 16.09809 | 120.91225 | 28396 ft | 471 kts | 348° |
| 2026-05-05 13:31 | 16.13041 | 120.90636 | 28674 ft | 472 kts | 348° |
| 2026-05-05 13:32 | 16.16285 | 120.90045 | 28926 ft | 474 kts | 348° |
| 2026-05-05 13:32 | 16.19549 | 120.89449 | 29174 ft | 476 kts | 348° |
| 2026-05-05 13:32 | 16.22818 | 120.88851 | 29446 ft | 478 kts | 348° |
| 2026-05-05 13:32 | 16.26108 | 120.88249 | 29710 ft | 480 kts | 348° |
| 2026-05-05 13:33 | 16.29364 | 120.87653 | 29956 ft | 483 kts | 348° |
| 2026-05-05 13:33 | 16.32723 | 120.87039 | 30200 ft | 485 kts | 347° |
| 2026-05-05 13:33 | 16.36002 | 120.86439 | 30479 ft | 485 kts | 348° |
| 2026-05-05 13:33 | 16.39346 | 120.85827 | 30730 ft | 486 kts | 347° |
| 2026-05-05 13:34 | 16.42683 | 120.85217 | 30960 ft | 487 kts | 347° |
| 2026-05-05 13:34 | 16.46036 | 120.84603 | 31216 ft | 489 kts | 347° |
| 2026-05-05 13:34 | 16.49392 | 120.83987 | 31467 ft | 490 kts | 347° |
| 2026-05-05 13:34 | 16.52757 | 120.83371 | 31703 ft | 491 kts | 347° |
| 2026-05-05 13:35 | 16.56120 | 120.82754 | 32018 ft | 490 kts | 347° |
| 2026-05-05 13:35 | 16.59472 | 120.82141 | 32440 ft | 487 kts | 347° |
| 2026-05-05 13:35 | 16.62801 | 120.81532 | 32846 ft | 484 kts | 347° |
| 2026-05-05 13:35 | 16.66071 | 120.80933 | 33186 ft | 482 kts | 347° |
| 2026-05-05 13:36 | 16.69411 | 120.80320 | 33478 ft | 482 kts | 347° |
| 2026-05-05 13:36 | 16.72709 | 120.79714 | 33761 ft | 481 kts | 347° |
| 2026-05-05 13:36 | 16.75965 | 120.79115 | 34076 ft | 480 kts | 347° |
| 2026-05-05 13:36 | 16.79262 | 120.78508 | 34368 ft | 479 kts | 347° |
| 2026-05-05 13:37 | 16.82528 | 120.77907 | 34661 ft | 477 kts | 347° |
| 2026-05-05 13:37 | 16.85792 | 120.77307 | 34943 ft | 475 kts | 347° |
| 2026-05-05 13:37 | 16.89055 | 120.76706 | 35209 ft | 474 kts | 347° |
| 2026-05-05 13:37 | 16.92314 | 120.76106 | 35443 ft | 474 kts | 347° |
| 2026-05-05 13:38 | 16.95560 | 120.75508 | 35674 ft | 473 kts | 347° |
| 2026-05-05 13:38 | 16.98808 | 120.74909 | 35906 ft | 473 kts | 347° |
| 2026-05-05 13:38 | 17.02048 | 120.74312 | 36153 ft | 472 kts | 347° |
| 2026-05-05 13:38 | 17.05289 | 120.73715 | 36376 ft | 471 kts | 347° |
| 2026-05-05 13:39 | 17.08475 | 120.73128 | 36595 ft | 470 kts | 347° |
| 2026-05-05 13:39 | 17.09740 | 120.72895 | 36684 ft | 470 kts | 347° |
| 2026-05-05 13:41 | 17.11141 | 120.72637 | 36822 ft | 469 kts | 347° |
| 2026-05-05 13:42 | 17.14373 | 120.72041 | 36984 ft | 469 kts | 347° |
| 2026-05-05 13:42 | 17.17594 | 120.71446 | 37000 ft | 469 kts | 347° |
| 2026-05-05 13:42 | 17.23966 | 120.70269 | 36993 ft | 468 kts | 346° |
| 2026-05-05 13:43 | 17.30400 | 120.69082 | 36986 ft | 468 kts | 346° |
| 2026-05-05 13:43 | 17.36817 | 120.67900 | 36979 ft | 468 kts | 346° |
| 2026-05-05 13:44 | 17.43248 | 120.66716 | 36981 ft | 468 kts | 346° |
| 2026-05-05 13:44 | 17.49586 | 120.65548 | 36973 ft | 468 kts | 346° |
| 2026-05-05 13:45 | 17.56043 | 120.64358 | 36974 ft | 468 kts | 346° |
| 2026-05-05 13:45 | 17.62454 | 120.63175 | 36966 ft | 467 kts | 346° |
| 2026-05-05 13:46 | 17.68862 | 120.61992 | 36950 ft | 467 kts | 346° |
| 2026-05-05 13:46 | 17.75224 | 120.60817 | 36948 ft | 467 kts | 346° |
| 2026-05-05 13:47 | 17.81635 | 120.59633 | 36952 ft | 467 kts | 346° |
| 2026-05-05 13:47 | 17.88043 | 120.58447 | 36937 ft | 467 kts | 346° |
| 2026-05-05 13:48 | 17.94470 | 120.57260 | 36930 ft | 467 kts | 346° |
| 2026-05-05 13:48 | 18.00840 | 120.56084 | 36921 ft | 467 kts | 346° |
| 2026-05-05 13:49 | 18.07242 | 120.54895 | 36911 ft | 467 kts | 346° |
| 2026-05-05 13:49 | 18.13642 | 120.53702 | 36921 ft | 467 kts | 346° |
| 2026-05-05 13:50 | 18.20163 | 120.53192 | 36912 ft | 473 kts | 357° |
| 2026-05-05 13:50 | 18.26736 | 120.53542 | 36914 ft | 474 kts | 0° |
| 2026-05-05 13:51 | 18.33332 | 120.54085 | 36930 ft | 475 kts | 1° |
| 2026-05-05 13:51 | 18.39919 | 120.54651 | 36930 ft | 475 kts | 0° |
| 2026-05-05 13:52 | 18.46501 | 120.55196 | 36935 ft | 474 kts | 0° |
| 2026-05-05 13:52 | 18.53054 | 120.55725 | 36932 ft | 475 kts | 0° |
| 2026-05-05 13:53 | 18.59653 | 120.56253 | 36933 ft | 475 kts | 0° |
| 2026-05-05 13:53 | 18.66230 | 120.56780 | 36935 ft | 475 kts | 0° |
| 2026-05-05 13:54 | 18.72840 | 120.57311 | 36940 ft | 475 kts | 0° |
| 2026-05-05 13:54 | 18.79378 | 120.57837 | 36940 ft | 474 kts | 0° |
| 2026-05-05 13:55 | 18.85966 | 120.58367 | 36939 ft | 475 kts | 0° |
| 2026-05-05 13:55 | 18.92552 | 120.58897 | 36941 ft | 475 kts | 0° |
| 2026-05-05 13:56 | 18.99137 | 120.59428 | 36940 ft | 475 kts | 0° |
| 2026-05-05 13:56 | 19.05738 | 120.59961 | 36941 ft | 475 kts | 0° |
| 2026-05-05 13:57 | 19.12301 | 120.60491 | 36952 ft | 475 kts | 0° |
| 2026-05-05 13:57 | 19.18894 | 120.61024 | 36947 ft | 475 kts | 0° |
| 2026-05-05 13:58 | 19.25498 | 120.61558 | 36945 ft | 475 kts | 0° |
| 2026-05-05 13:58 | 19.32092 | 120.62092 | 36943 ft | 475 kts | 0° |
| 2026-05-05 13:59 | 19.41989 | 120.62895 | 36951 ft | 475 kts | 0° |
| 2026-05-05 14:00 | 19.50765 | 120.63606 | 36954 ft | 475 kts | 0° |
| 2026-05-05 14:00 | 19.58433 | 120.64229 | 36970 ft | 475 kts | 0° |
| 2026-05-05 14:01 | 19.65042 | 120.64765 | 36964 ft | 476 kts | 0° |
| 2026-05-05 14:01 | 19.71643 | 120.65302 | 36969 ft | 476 kts | 0° |
| 2026-05-05 14:02 | 19.78258 | 120.65841 | 36971 ft | 476 kts | 0° |
| 2026-05-05 14:02 | 19.84856 | 120.66378 | 36966 ft | 476 kts | 0° |
| 2026-05-05 14:03 | 19.91433 | 120.66915 | 36960 ft | 477 kts | 360° |
| 2026-05-05 14:03 | 19.98065 | 120.67456 | 36959 ft | 477 kts | 360° |
| 2026-05-05 14:04 | 20.04682 | 120.67996 | 36963 ft | 476 kts | 360° |
| 2026-05-05 14:04 | 20.11302 | 120.68538 | 36963 ft | 477 kts | 360° |
| 2026-05-05 14:05 | 20.17884 | 120.69076 | 36970 ft | 477 kts | 360° |
| 2026-05-05 14:05 | 20.24517 | 120.69619 | 36966 ft | 477 kts | 360° |
| 2026-05-05 14:06 | 20.31148 | 120.70163 | 36966 ft | 477 kts | 360° |
| 2026-05-05 14:06 | 20.37780 | 120.70707 | 36971 ft | 477 kts | 360° |
| 2026-05-05 14:07 | 20.44359 | 120.71247 | 36981 ft | 477 kts | 359° |
| 2026-05-05 14:07 | 20.50995 | 120.71792 | 36974 ft | 477 kts | 359° |
| 2026-05-05 14:08 | 20.57581 | 120.72334 | 36974 ft | 477 kts | 359° |
| 2026-05-05 14:08 | 20.63141 | 120.72791 | 36977 ft | 477 kts | 359° |
| 2026-05-05 14:09 | 20.70837 | 120.73425 | 36977 ft | 477 kts | 359° |
| 2026-05-05 14:09 | 20.77460 | 120.73971 | 36981 ft | 477 kts | 359° |
| 2026-05-05 14:10 | 20.84090 | 120.74518 | 36981 ft | 477 kts | 359° |
| 2026-05-05 14:10 | 20.90669 | 120.75062 | 36978 ft | 477 kts | 359° |
| 2026-05-05 14:11 | 20.97307 | 120.75565 | 36985 ft | 474 kts | 355° |
| 2026-05-05 14:11 | 21.03777 | 120.74829 | 36987 ft | 465 kts | 343° |
| 2026-05-05 14:12 | 21.10087 | 120.73358 | 36983 ft | 464 kts | 341° |
| 2026-05-05 14:12 | 21.16359 | 120.71725 | 36992 ft | 463 kts | 340° |
| 2026-05-05 14:13 | 21.22636 | 120.70081 | 36986 ft | 464 kts | 341° |
| 2026-05-05 14:13 | 21.28879 | 120.68470 | 36987 ft | 463 kts | 341° |
| 2026-05-05 14:14 | 21.35151 | 120.66865 | 36985 ft | 464 kts | 340° |
| 2026-05-05 14:14 | 21.40430 | 120.65515 | 36986 ft | 464 kts | 340° |
| 2026-05-05 14:15 | 21.47703 | 120.63654 | 36992 ft | 464 kts | 340° |
| 2026-05-05 14:15 | 21.52957 | 120.62307 | 36989 ft | 464 kts | 340° |
| 2026-05-05 14:16 | 21.59253 | 120.60691 | 36992 ft | 464 kts | 340° |
| 2026-05-05 14:16 | 21.65498 | 120.59083 | 36993 ft | 465 kts | 340° |
| 2026-05-05 14:17 | 21.71794 | 120.57461 | 36994 ft | 465 kts | 340° |
| 2026-05-05 14:17 | 21.78082 | 120.55840 | 36996 ft | 465 kts | 340° |
| 2026-05-05 14:18 | 21.84381 | 120.54217 | 36999 ft | 465 kts | 340° |
| 2026-05-05 14:18 | 21.90649 | 120.52602 | 37019 ft | 465 kts | 340° |
| 2026-05-05 14:19 | 21.96937 | 120.50980 | 36999 ft | 465 kts | 339° |
| 2026-05-05 14:19 | 22.03244 | 120.49352 | 37000 ft | 465 kts | 339° |
| 2026-05-05 14:20 | 22.09541 | 120.47724 | 36996 ft | 465 kts | 339° |
| 2026-05-05 14:20 | 22.15841 | 120.46095 | 36999 ft | 465 kts | 339° |
| 2026-05-05 14:21 | 22.22136 | 120.44465 | 36998 ft | 465 kts | 339° |
| 2026-05-05 14:21 | 22.28402 | 120.42841 | 36999 ft | 465 kts | 339° |
| 2026-05-05 14:22 | 22.34698 | 120.41208 | 36999 ft | 465 kts | 339° |
| 2026-05-05 14:22 | 22.41009 | 120.39570 | 37000 ft | 465 kts | 339° |
| 2026-05-05 14:23 | 22.47269 | 120.37943 | 36994 ft | 465 kts | 339° |
| 2026-05-05 14:23 | 22.53571 | 120.36304 | 36968 ft | 465 kts | 339° |
| 2026-05-05 14:24 | 22.59877 | 120.34662 | 36963 ft | 466 kts | 339° |
| 2026-05-05 14:24 | 22.66148 | 120.33028 | 36966 ft | 466 kts | 339° |
| 2026-05-05 14:25 | 22.72450 | 120.31384 | 36972 ft | 466 kts | 339° |
| 2026-05-05 14:25 | 22.78755 | 120.29739 | 36996 ft | 465 kts | 339° |
| 2026-05-05 14:26 | 22.85012 | 120.28103 | 36993 ft | 466 kts | 339° |
| 2026-05-05 14:26 | 22.91320 | 120.26451 | 36996 ft | 465 kts | 339° |
| 2026-05-05 14:27 | 22.97627 | 120.24798 | 36997 ft | 466 kts | 339° |
| 2026-05-05 14:27 | 23.03927 | 120.23146 | 36997 ft | 465 kts | 339° |
| 2026-05-05 14:28 | 23.10232 | 120.21497 | 37014 ft | 467 kts | 339° |
| 2026-05-05 14:28 | 23.16791 | 120.21008 | 36999 ft | 486 kts | 356° |
| 2026-05-05 14:29 | 23.23554 | 120.21763 | 37009 ft | 490 kts | 359° |
| 2026-05-05 14:29 | 23.30324 | 120.22600 | 37007 ft | 490 kts | 359° |
| 2026-05-05 14:30 | 23.37102 | 120.23421 | 37056 ft | 490 kts | 358° |
| 2026-05-05 14:30 | 23.43636 | 120.24205 | 36778 ft | 488 kts | 358° |
| 2026-05-05 14:31 | 23.46913 | 120.24598 | 36229 ft | 487 kts | 358° |
| 2026-05-05 14:31 | 23.50324 | 120.25007 | 35813 ft | 484 kts | 358° |
| 2026-05-05 14:31 | 23.53620 | 120.25407 | 35628 ft | 470 kts | 358° |
| 2026-05-05 14:31 | 23.56801 | 120.25796 | 35431 ft | 451 kts | 358° |
| 2026-05-05 14:32 | 23.59839 | 120.26166 | 35062 ft | 438 kts | 358° |
| 2026-05-05 14:32 | 23.62851 | 120.26526 | 34456 ft | 432 kts | 358° |
| 2026-05-05 14:32 | 23.65858 | 120.26881 | 33657 ft | 432 kts | 358° |
| 2026-05-05 14:32 | 23.68841 | 120.27241 | 32701 ft | 435 kts | 0° |
| 2026-05-05 14:33 | 23.71854 | 120.27930 | 31748 ft | 443 kts | 8° |
| 2026-05-05 14:33 | 23.74786 | 120.28874 | 30843 ft | 446 kts | 11° |
| 2026-05-05 14:33 | 23.77784 | 120.29910 | 29932 ft | 445 kts | 11° |
| 2026-05-05 14:33 | 23.80679 | 120.30924 | 29148 ft | 440 kts | 11° |
| 2026-05-05 14:34 | 23.83574 | 120.31938 | 28428 ft | 432 kts | 11° |
| 2026-05-05 14:34 | 23.86417 | 120.32931 | 27706 ft | 426 kts | 11° |
| 2026-05-05 14:34 | 23.89219 | 120.33905 | 26950 ft | 421 kts | 11° |
| 2026-05-05 14:34 | 23.92008 | 120.34872 | 26187 ft | 418 kts | 11° |
| 2026-05-05 14:35 | 23.94741 | 120.35820 | 25439 ft | 415 kts | 11° |
| 2026-05-05 14:35 | 23.97508 | 120.36780 | 24733 ft | 410 kts | 11° |
| 2026-05-05 14:35 | 24.00226 | 120.37723 | 24051 ft | 406 kts | 11° |
| 2026-05-05 14:35 | 24.02864 | 120.38639 | 23340 ft | 402 kts | 11° |
| 2026-05-05 14:36 | 24.05520 | 120.39561 | 22538 ft | 398 kts | 11° |
| 2026-05-05 14:36 | 24.08146 | 120.40472 | 21855 ft | 392 kts | 12° |
| 2026-05-05 14:36 | 24.10727 | 120.41371 | 21196 ft | 385 kts | 12° |
| 2026-05-05 14:36 | 24.13273 | 120.42256 | 20472 ft | 381 kts | 12° |
| 2026-05-05 14:37 | 24.15778 | 120.43127 | 19975 ft | 372 kts | 13° |
| 2026-05-05 14:37 | 24.18159 | 120.43958 | 19785 ft | 353 kts | 13° |
| 2026-05-05 14:37 | 24.20460 | 120.44764 | 19623 ft | 335 kts | 12° |
| 2026-05-05 14:37 | 24.22623 | 120.45518 | 19254 ft | 328 kts | 12° |
| 2026-05-05 14:38 | 24.24794 | 120.46270 | 18704 ft | 327 kts | 12° |
| 2026-05-05 14:38 | 24.26972 | 120.47024 | 18122 ft | 327 kts | 13° |
| 2026-05-05 14:38 | 24.29124 | 120.47772 | 17535 ft | 324 kts | 13° |
| 2026-05-05 14:38 | 24.31275 | 120.48521 | 17006 ft | 321 kts | 13° |
| 2026-05-05 14:39 | 24.33393 | 120.49260 | 16471 ft | 317 kts | 13° |
| 2026-05-05 14:39 | 24.35490 | 120.49991 | 15947 ft | 315 kts | 13° |
| 2026-05-05 14:39 | 24.37565 | 120.50715 | 15419 ft | 312 kts | 13° |
| 2026-05-05 14:39 | 24.39630 | 120.51436 | 14921 ft | 309 kts | 13° |
| 2026-05-05 14:40 | 24.41653 | 120.52143 | 14390 ft | 308 kts | 13° |
| 2026-05-05 14:40 | 24.43695 | 120.52855 | 13848 ft | 307 kts | 13° |
| 2026-05-05 14:40 | 24.45720 | 120.53563 | 13294 ft | 304 kts | 13° |
| 2026-05-05 14:40 | 24.47736 | 120.54268 | 12751 ft | 301 kts | 13° |
| 2026-05-05 14:41 | 24.49720 | 120.54962 | 12239 ft | 298 kts | 13° |
| 2026-05-05 14:41 | 24.51691 | 120.55652 | 11709 ft | 295 kts | 13° |
| 2026-05-05 14:41 | 24.53639 | 120.56333 | 11203 ft | 293 kts | 13° |
| 2026-05-05 14:41 | 24.55579 | 120.57012 | 10694 ft | 291 kts | 13° |
| 2026-05-05 14:42 | 24.57508 | 120.57688 | 10211 ft | 289 kts | 13° |
| 2026-05-05 14:42 | 24.59414 | 120.58355 | 9694 ft | 286 kts | 14° |
| 2026-05-05 14:42 | 24.61281 | 120.59010 | 9199 ft | 283 kts | 14° |
| 2026-05-05 14:42 | 24.63147 | 120.59664 | 8715 ft | 280 kts | 14° |
| 2026-05-05 14:43 | 24.64989 | 120.60310 | 8222 ft | 276 kts | 14° |
| 2026-05-05 14:43 | 24.66823 | 120.60956 | 7773 ft | 273 kts | 15° |
| 2026-05-05 14:43 | 24.68517 | 120.61874 | 7300 ft | 273 kts | 36° |
| 2026-05-05 14:43 | 24.69679 | 120.63502 | 6832 ft | 273 kts | 69° |
| 2026-05-05 14:44 | 24.69885 | 120.65533 | 6347 ft | 268 kts | 103° |
| 2026-05-05 14:44 | 24.69114 | 120.67341 | 5860 ft | 258 kts | 135° |
| 2026-05-05 14:44 | 24.67668 | 120.68408 | 5377 ft | 249 kts | 166° |
| 2026-05-05 14:44 | 24.65977 | 120.68514 | 5081 ft | 243 kts | 193° |
| 2026-05-05 14:45 | 24.64347 | 120.68026 | 5022 ft | 243 kts | 200° |
| 2026-05-05 14:45 | 24.62755 | 120.67455 | 5018 ft | 243 kts | 200° |
| 2026-05-05 14:45 | 24.61142 | 120.66889 | 5016 ft | 243 kts | 200° |
| 2026-05-05 14:45 | 24.59538 | 120.66328 | 5012 ft | 242 kts | 200° |
| 2026-05-05 14:46 | 24.58010 | 120.65558 | 5016 ft | 239 kts | 217° |
| 2026-05-05 14:46 | 24.56906 | 120.64233 | 5017 ft | 236 kts | 243° |
| 2026-05-05 14:46 | 24.56517 | 120.62495 | 5019 ft | 237 kts | 270° |
| 2026-05-05 14:46 | 24.56918 | 120.60750 | 5017 ft | 239 kts | 297° |
| 2026-05-05 14:47 | 24.58027 | 120.59430 | 5009 ft | 244 kts | 329° |
| 2026-05-05 14:47 | 24.59682 | 120.59026 | 4991 ft | 250 kts | 360° |
| 2026-05-05 14:47 | 24.61415 | 120.59292 | 4981 ft | 254 kts | 10° |
| 2026-05-05 14:47 | 24.63133 | 120.59768 | 4980 ft | 255 kts | 13° |
| 2026-05-05 14:48 | 24.64843 | 120.60310 | 4979 ft | 255 kts | 14° |
| 2026-05-05 14:48 | 24.66543 | 120.60871 | 4991 ft | 255 kts | 15° |
| 2026-05-05 14:48 | 24.68204 | 120.61573 | 4983 ft | 255 kts | 27° |
| 2026-05-05 14:48 | 24.69629 | 120.62722 | 4985 ft | 256 kts | 46° |
| 2026-05-05 14:49 | 24.70659 | 120.64312 | 4986 ft | 256 kts | 62° |
| 2026-05-05 14:49 | 24.71278 | 120.66145 | 4985 ft | 256 kts | 80° |
| 2026-05-05 14:49 | 24.71837 | 120.67995 | 4983 ft | 256 kts | 56° |
| 2026-05-05 14:49 | 24.72988 | 120.69439 | 4989 ft | 255 kts | 44° |
| 2026-05-05 14:50 | 24.74331 | 120.70713 | 4987 ft | 255 kts | 38° |
| 2026-05-05 14:50 | 24.75761 | 120.71939 | 4986 ft | 269 kts | 36° |
| 2026-05-05 14:50 | 24.77281 | 120.73204 | 4985 ft | 277 kts | 36° |
| 2026-05-05 14:50 | 24.78832 | 120.74484 | 4989 ft | 279 kts | 36° |
| 2026-05-05 14:51 | 24.80387 | 120.75765 | 4991 ft | 280 kts | 36° |
| 2026-05-05 14:51 | 24.81953 | 120.77054 | 4991 ft | 280 kts | 36° |
| 2026-05-05 14:51 | 24.83513 | 120.78338 | 4988 ft | 280 kts | 36° |
| 2026-05-05 14:51 | 24.85078 | 120.79626 | 4987 ft | 280 kts | 36° |
| 2026-05-05 14:52 | 24.86616 | 120.80892 | 4986 ft | 280 kts | 36° |
| 2026-05-05 14:52 | 24.88177 | 120.82178 | 4989 ft | 280 kts | 36° |
| 2026-05-05 14:52 | 24.89741 | 120.83467 | 4988 ft | 280 kts | 36° |
| 2026-05-05 14:52 | 24.91186 | 120.84903 | 4985 ft | 280 kts | 51° |
| 2026-05-05 14:53 | 24.92048 | 120.86786 | 4987 ft | 270 kts | 75° |
| 2026-05-05 14:53 | 24.92401 | 120.88754 | 4987 ft | 255 kts | 82° |
| 2026-05-05 14:53 | 24.92624 | 120.90640 | 4984 ft | 241 kts | 83° |
| 2026-05-05 14:53 | 24.92817 | 120.92408 | 4978 ft | 228 kts | 84° |
| 2026-05-05 14:54 | 24.93003 | 120.94090 | 4973 ft | 215 kts | 83° |
| 2026-05-05 14:54 | 24.93184 | 120.95687 | 4923 ft | 205 kts | 83° |
| 2026-05-05 14:54 | 24.93365 | 120.97238 | 4736 ft | 203 kts | 83° |
| 2026-05-05 14:54 | 24.93546 | 120.98782 | 4516 ft | 201 kts | 83° |
| 2026-05-05 14:55 | 24.93729 | 121.00326 | 4202 ft | 211 kts | 84° |
| 2026-05-05 14:55 | 24.93928 | 121.02010 | 3936 ft | 232 kts | 84° |
| 2026-05-05 14:55 | 24.94145 | 121.03839 | 3819 ft | 254 kts | 84° |
| 2026-05-05 14:55 | 24.94436 | 121.05749 | 4000 ft | 244 kts | 78° |
| 2026-05-05 14:56 | 24.94988 | 121.07474 | 3974 ft | 233 kts | 65° |
| 2026-05-05 14:56 | 24.95686 | 121.09004 | 3950 ft | 215 kts | 63° |
| 2026-05-05 14:56 | 24.96524 | 121.10286 | 3867 ft | 198 kts | 48° |
| 2026-05-05 14:56 | 24.97410 | 121.11373 | 3789 ft | 183 kts | 48° |
| 2026-05-05 14:57 | 24.98249 | 121.12413 | 3395 ft | 188 kts | 49° |
| 2026-05-05 14:57 | 24.99148 | 121.13547 | 2693 ft | 207 kts | 50° |
| 2026-05-05 14:57 | 25.00108 | 121.14777 | 2166 ft | 213 kts | 50° |
| 2026-05-05 14:57 | 25.01083 | 121.16010 | 1695 ft | 210 kts | 49° |
| 2026-05-05 14:58 | 25.02020 | 121.17155 | 1472 ft | 192 kts | 49° |
| 2026-05-05 14:58 | 25.02874 | 121.18231 | 1215 ft | 179 kts | 50° |
| 2026-05-05 14:58 | 25.03649 | 121.19240 | 942 ft | 166 kts | 51° |
| 2026-05-05 14:58 | 25.04378 | 121.20188 | 681 ft | 157 kts | 50° |
| 2026-05-05 14:59 | 25.05065 | 121.21070 | 452 ft | 148 kts | 49° |
| 2026-05-05 14:59 | 25.05719 | 121.21896 | 237 ft | 135 kts | 49° |
| 2026-05-05 14:59 | 25.06303 | 121.22626 | 101 ft | 118 kts | 49° |
| 2026-05-05 14:59 | 25.06697 | 121.23130 | 100 ft | 47 kts | 49° |
| 2026-05-05 15:00 | 25.06886 | 121.23372 | 101 ft | 40 kts | 49° |
| 2026-05-05 15:00 | 25.07006 | 121.23523 | 102 ft | 38 kts | 49° |
| 2026-05-05 15:00 | 25.07270 | 121.23728 | 100 ft | 32 kts | 19° |
| 2026-05-05 15:00 | 25.07382 | 121.23770 | 103 ft | 0 kts | 19° |